createdAt,value
2023-04-15T00:02:07.826Z,18.22
2023-04-15T00:04:37.723Z,17.11
2023-04-15T00:07:05.536Z,16.03
2023-04-15T00:09:33.196Z,15.28
2023-04-15T00:12:00.861Z,14.75
2023-04-15T00:14:28.625Z,14.33
2023-04-15T00:16:57.470Z,14.00
2023-04-15T00:19:25.685Z,13.71
2023-04-15T00:21:54.065Z,14.07
2023-04-15T00:24:21.832Z,16.45
2023-04-15T00:26:49.482Z,17.65
2023-04-15T00:29:17.160Z,16.73
2023-04-15T00:31:45.019Z,15.64
2023-04-15T00:34:13.192Z,14.87
2023-04-15T00:36:40.854Z,14.34
2023-04-15T00:39:08.516Z,13.93
2023-04-15T00:41:39.456Z,13.61
2023-04-15T00:44:07.218Z,13.35
2023-04-15T00:46:35.295Z,13.13
2023-04-15T00:49:02.964Z,13.55
2023-04-15T00:51:31.740Z,16.05
2023-04-15T00:53:59.403Z,17.32
2023-04-15T00:56:27.576Z,16.40
2023-04-15T00:58:55.443Z,15.36
2023-04-15T01:01:23.237Z,14.64
2023-04-15T01:03:51.480Z,14.11
2023-04-15T01:06:19.370Z,13.67
2023-04-15T01:08:47.113Z,13.34
2023-04-15T01:11:14.782Z,13.06
2023-04-15T01:13:42.846Z,12.81
2023-04-15T01:16:10.644Z,13.56
2023-04-15T01:18:38.890Z,16.06
2023-04-15T01:21:07.268Z,17.05
2023-04-15T01:23:34.926Z,16.02
2023-04-15T01:26:02.900Z,15.00
2023-04-15T01:28:30.661Z,14.29
2023-04-15T01:30:58.941Z,13.80
2023-04-15T01:33:26.702Z,13.43
2023-04-15T01:35:54.673Z,13.13
2023-04-15T01:38:22.643Z,12.88
2023-04-15T01:40:50.402Z,12.67
2023-04-15T01:43:18.067Z,12.49
2023-04-15T01:45:46.273Z,12.32
2023-04-15T01:48:14.007Z,12.72
2023-04-15T01:50:42.078Z,15.21
2023-04-15T01:53:09.947Z,16.72
2023-04-15T01:55:37.811Z,15.83
2023-04-15T01:58:05.674Z,14.82
2023-04-15T02:00:33.438Z,14.10
2023-04-15T02:03:01.177Z,13.58
2023-04-15T02:05:29.077Z,13.20
2023-04-15T02:07:56.842Z,12.91
2023-04-15T02:10:24.509Z,12.66
2023-04-15T02:12:52.265Z,12.45
2023-04-15T02:15:26.686Z,12.68
2023-04-15T02:17:55.689Z,15.11
2023-04-15T02:20:23.450Z,16.73
2023-04-15T02:22:51.512Z,15.92
2023-04-15T02:25:19.276Z,14.88
2023-04-15T02:27:46.949Z,14.15
2023-04-15T02:30:14.709Z,13.67
2023-04-15T02:32:45.549Z,13.31
2023-04-15T02:35:13.583Z,13.02
2023-04-15T02:37:44.036Z,12.78
2023-04-15T02:40:14.680Z,12.58
2023-04-15T02:42:42.850Z,12.40
2023-04-15T02:45:10.610Z,12.79
2023-04-15T02:47:40.542Z,15.37
2023-04-15T02:50:08.188Z,16.75
2023-04-15T02:52:35.945Z,15.83
2023-04-15T02:55:04.642Z,14.82
2023-04-15T02:57:32.403Z,14.12
2023-04-15T03:00:00.056Z,13.67
2023-04-15T03:02:28.108Z,13.33
2023-04-15T03:04:56.095Z,13.03
2023-04-15T03:07:23.756Z,12.77
2023-04-15T03:09:51.826Z,12.53
2023-04-15T03:12:19.494Z,12.32
2023-04-15T03:14:47.252Z,12.64
2023-04-15T03:17:15.123Z,15.23
2023-04-15T03:19:42.789Z,16.67
2023-04-15T03:22:10.549Z,15.74
2023-04-15T03:24:38.221Z,14.70
2023-04-15T03:27:08.221Z,13.97
2023-04-15T03:29:35.885Z,13.48
2023-04-15T03:32:03.551Z,13.11
2023-04-15T03:34:31.725Z,12.79
2023-04-15T03:36:59.415Z,12.53
2023-04-15T03:39:27.459Z,12.31
2023-04-15T03:41:55.117Z,12.08
2023-04-15T03:44:22.777Z,12.51
2023-04-15T03:46:50.566Z,15.16
2023-04-15T03:49:19.637Z,16.63
2023-04-15T03:51:47.300Z,15.69
2023-04-15T03:54:15.473Z,14.62
2023-04-15T03:56:43.137Z,13.86
2023-04-15T03:59:11.619Z,13.33
2023-04-15T04:01:39.422Z,12.95
2023-04-15T04:04:07.718Z,12.64
2023-04-15T04:06:35.626Z,12.39
2023-04-15T04:09:03.534Z,12.16
2023-04-15T04:11:31.973Z,11.97
2023-04-15T04:13:59.637Z,11.79
2023-04-15T04:16:27.480Z,12.21
2023-04-15T04:18:55.476Z,14.86
2023-04-15T04:21:23.239Z,16.26
2023-04-15T04:23:50.895Z,15.34
2023-04-15T04:26:18.766Z,14.30
2023-04-15T04:28:46.428Z,13.59
2023-04-15T04:31:14.092Z,13.12
2023-04-15T04:33:41.853Z,12.77
2023-04-15T04:36:09.612Z,12.50
2023-04-15T04:38:37.479Z,12.27
2023-04-15T04:41:05.142Z,12.06
2023-04-15T04:43:32.813Z,11.88
2023-04-15T04:46:00.793Z,11.72
2023-04-15T04:48:28.534Z,12.12
2023-04-15T04:50:56.294Z,14.75
2023-04-15T04:53:24.065Z,16.15
2023-04-15T04:55:51.826Z,15.25
2023-04-15T04:58:19.592Z,14.25
2023-04-15T05:00:47.381Z,13.56
2023-04-15T05:03:15.286Z,13.09
2023-04-15T05:05:43.741Z,12.74
2023-04-15T05:08:11.465Z,12.47
2023-04-15T05:10:39.241Z,12.24
2023-04-15T05:13:06.894Z,12.02
2023-04-15T05:15:37.152Z,11.81
2023-04-15T05:18:04.951Z,11.64
2023-04-15T05:20:32.747Z,12.10
2023-04-15T05:23:00.409Z,14.74
2023-04-15T05:25:28.070Z,16.05
2023-04-15T05:27:56.138Z,15.15
2023-04-15T05:30:23.803Z,14.19
2023-04-15T05:32:51.454Z,13.54
2023-04-15T05:35:19.338Z,13.10
2023-04-15T05:37:47.490Z,12.80
2023-04-15T05:40:15.752Z,12.58
2023-04-15T05:42:43.443Z,12.37
2023-04-15T05:45:11.105Z,12.19
2023-04-15T05:47:38.798Z,12.04
2023-04-15T05:50:06.838Z,11.92
2023-04-15T05:52:34.500Z,11.79
2023-04-15T05:55:02.263Z,11.67
2023-04-15T05:57:29.926Z,11.56
2023-04-15T05:59:58.106Z,12.12
2023-04-15T06:02:26.868Z,14.91
2023-04-15T06:04:54.825Z,16.21
2023-04-15T06:07:22.638Z,15.26
2023-04-15T06:09:50.594Z,14.31
2023-04-15T06:12:18.252Z,13.67
2023-04-15T06:14:45.914Z,13.23
2023-04-15T06:17:15.211Z,12.88
2023-04-15T06:19:42.874Z,12.62
2023-04-15T06:22:10.741Z,12.40
2023-04-15T06:24:38.508Z,12.22
2023-04-15T06:27:06.270Z,12.08
2023-04-15T06:29:33.903Z,11.98
2023-04-15T06:32:01.802Z,11.89
2023-04-15T06:34:29.557Z,12.12
2023-04-15T06:36:57.731Z,14.55
2023-04-15T06:39:25.396Z,16.30
2023-04-15T06:41:53.266Z,15.58
2023-04-15T06:44:21.024Z,14.62
2023-04-15T06:46:48.688Z,13.95
2023-04-15T06:49:16.654Z,13.52
2023-04-15T06:51:44.421Z,13.19
2023-04-15T06:54:12.299Z,12.93
2023-04-15T06:56:40.052Z,12.73
2023-04-15T06:59:08.837Z,12.57
2023-04-15T07:01:36.619Z,12.44
2023-04-15T07:04:04.633Z,12.34
2023-04-15T07:06:32.949Z,12.29
2023-04-15T07:09:01.910Z,12.26
2023-04-15T07:11:29.806Z,12.25
2023-04-15T07:13:57.480Z,12.24
2023-04-15T07:16:26.198Z,12.24
2023-04-15T07:18:56.169Z,12.26
2023-04-15T07:21:24.144Z,12.26
2023-04-15T07:23:52.212Z,12.27
2023-04-15T07:26:19.876Z,13.53
2023-04-15T07:28:47.646Z,15.98
2023-04-15T07:31:16.735Z,15.85
2023-04-15T07:33:44.497Z,15.01
2023-04-15T07:36:12.265Z,14.41
2023-04-15T07:38:39.924Z,14.01
2023-04-15T07:41:07.798Z,13.75
2023-04-15T07:43:35.763Z,13.55
2023-04-15T07:46:03.531Z,13.39
2023-04-15T07:48:31.700Z,13.25
2023-04-15T07:50:59.362Z,13.13
2023-04-15T07:53:27.133Z,13.04
2023-04-15T07:55:54.787Z,12.98
2023-04-15T07:58:22.454Z,12.95
2023-04-15T08:00:50.621Z,12.94
2023-04-15T08:03:18.724Z,12.94
2023-04-15T08:05:47.491Z,12.95
2023-04-15T08:08:16.927Z,12.96
2023-04-15T08:10:45.777Z,12.96
2023-04-15T08:13:13.442Z,12.96
2023-04-15T08:15:41.591Z,12.97
2023-04-15T08:18:09.681Z,13.00
2023-04-15T08:20:38.372Z,13.04
2023-04-15T08:23:06.440Z,13.10
2023-04-15T08:25:34.117Z,13.16
2023-04-15T08:28:03.706Z,13.25
2023-04-15T08:30:31.677Z,13.34
2023-04-15T08:32:59.385Z,13.41
2023-04-15T08:35:27.724Z,13.48
2023-04-15T08:37:55.687Z,13.57
2023-04-15T08:40:23.352Z,13.68
2023-04-15T08:42:51.009Z,13.74
2023-04-15T08:45:21.158Z,13.80
2023-04-15T08:47:49.017Z,13.86
2023-04-15T08:50:16.766Z,13.89
2023-04-15T08:52:44.948Z,13.91
2023-04-15T08:55:13.107Z,13.91
2023-04-15T08:57:40.975Z,13.88
2023-04-15T09:00:09.555Z,13.86
2023-04-15T09:02:37.757Z,13.83
2023-04-15T09:05:07.134Z,13.81
2023-04-15T09:07:36.025Z,13.81
2023-04-15T09:10:03.804Z,13.83
2023-04-15T09:12:31.868Z,13.87
2023-04-15T09:14:59.622Z,13.92
2023-04-15T09:17:28.023Z,13.99
2023-04-15T09:19:55.778Z,14.05
2023-04-15T09:22:23.429Z,14.08
2023-04-15T09:24:51.192Z,14.09
2023-04-15T09:27:19.060Z,14.14
2023-04-15T09:29:47.132Z,14.18
2023-04-15T09:32:14.889Z,14.19
2023-04-15T09:34:42.660Z,14.21
2023-04-15T09:37:11.381Z,14.22
2023-04-15T09:39:39.212Z,14.23
2023-04-15T09:42:07.322Z,14.24
2023-04-15T09:44:35.160Z,14.23
2023-04-15T09:47:02.910Z,14.21
2023-04-15T09:49:30.609Z,14.20
2023-04-15T09:52:04.923Z,14.21
2023-04-15T09:54:33.371Z,14.24
2023-04-15T09:57:01.954Z,14.25
2023-04-15T09:59:29.617Z,14.26
2023-04-15T10:01:57.339Z,14.26
2023-04-15T10:04:25.345Z,14.28
2023-04-15T10:06:53.732Z,14.30
2023-04-15T10:09:21.494Z,14.31
2023-04-15T10:11:49.674Z,14.32
2023-04-15T10:14:17.840Z,14.34
2023-04-15T10:16:46.325Z,14.37
2023-04-15T10:19:13.990Z,14.47
2023-04-15T10:21:41.756Z,14.55
2023-04-15T10:24:09.418Z,14.61
2023-04-15T10:26:37.072Z,14.68
2023-04-15T10:29:05.143Z,14.72
2023-04-15T10:31:37.892Z,14.74
2023-04-15T10:34:08.350Z,14.81
2023-04-15T10:36:37.342Z,14.84
2023-04-15T10:39:05.109Z,14.83
2023-04-15T10:41:34.820Z,14.80
2023-04-15T10:44:03.096Z,14.77
2023-04-15T10:46:31.326Z,14.74
2023-04-15T10:48:59.133Z,14.74
2023-04-15T10:51:26.900Z,14.75
2023-04-15T10:53:54.569Z,14.78
2023-04-15T10:56:22.425Z,14.81
2023-04-15T10:58:50.087Z,14.84
2023-04-15T11:01:18.370Z,14.87
2023-04-15T11:03:46.930Z,14.87
2023-04-15T11:06:14.932Z,14.87
2023-04-15T11:08:42.683Z,14.87
2023-04-15T11:11:10.301Z,14.87
2023-04-15T11:13:38.039Z,14.88
2023-04-15T11:16:06.603Z,14.88
2023-04-15T11:18:34.463Z,14.91
2023-04-15T11:21:03.908Z,15.04
2023-04-15T11:23:31.822Z,15.26
2023-04-15T11:26:00.218Z,15.44
2023-04-15T11:28:28.482Z,15.62
2023-04-15T11:30:56.345Z,15.81
2023-04-15T11:33:24.420Z,15.99
2023-04-15T11:35:52.996Z,16.18
2023-04-15T11:38:20.659Z,16.36
2023-04-15T11:40:48.425Z,16.54
2023-04-15T11:43:16.394Z,16.70
2023-04-15T11:45:44.203Z,16.84
2023-04-15T11:48:12.125Z,16.95
2023-04-15T11:50:42.863Z,17.02
2023-04-15T11:53:10.625Z,17.06
2023-04-15T11:55:38.326Z,17.10
2023-04-15T11:58:06.768Z,17.13
2023-04-15T12:00:35.047Z,17.18
2023-04-15T12:03:02.953Z,17.22
2023-04-15T12:05:30.775Z,17.18
2023-04-15T12:07:59.054Z,17.12
2023-04-15T12:10:26.722Z,17.10
2023-04-15T12:12:54.476Z,17.10
2023-04-15T12:15:22.445Z,17.05
2023-04-15T12:17:51.434Z,16.97
2023-04-15T12:20:20.021Z,16.87
2023-04-15T12:22:47.822Z,16.76
2023-04-15T12:25:16.366Z,16.67
2023-04-15T12:27:44.133Z,16.59
2023-04-15T12:30:12.016Z,16.54
2023-04-15T12:32:42.105Z,16.52
2023-04-15T12:35:11.318Z,16.56
2023-04-15T12:37:39.194Z,16.64
2023-04-15T12:40:07.272Z,16.74
2023-04-15T12:42:35.726Z,16.85
2023-04-15T12:45:03.400Z,16.98
2023-04-15T12:47:31.595Z,17.09
2023-04-15T12:49:59.442Z,17.16
2023-04-15T12:52:27.309Z,17.18
2023-04-15T12:54:55.072Z,17.18
2023-04-15T12:57:22.854Z,17.22
2023-04-15T12:59:50.600Z,17.28
2023-04-15T13:02:19.018Z,17.32
2023-04-15T13:04:46.889Z,17.36
2023-04-15T13:07:15.965Z,17.41
2023-04-15T13:09:44.323Z,17.47
2023-04-15T13:12:14.063Z,17.53
2023-04-15T13:14:42.306Z,17.59
2023-04-15T13:17:11.712Z,17.68
2023-04-15T13:19:39.404Z,17.76
2023-04-15T13:22:08.671Z,17.85
2023-04-15T13:24:37.358Z,17.91
2023-04-15T13:27:05.325Z,17.95
2023-04-15T13:29:33.090Z,17.97
2023-04-15T13:32:01.746Z,17.97
2023-04-15T13:34:30.052Z,17.98
2023-04-15T13:36:57.922Z,17.97
2023-04-15T13:39:25.789Z,17.99
2023-04-15T13:41:53.572Z,17.99
2023-04-15T13:44:22.282Z,18.04
2023-04-15T13:46:50.155Z,18.12
2023-04-15T13:49:18.068Z,18.17
2023-04-15T13:51:45.944Z,18.24
2023-04-15T13:54:13.702Z,18.33
2023-04-15T13:56:41.473Z,18.41
2023-04-15T13:59:09.244Z,18.45
2023-04-15T14:01:37.018Z,18.49
2023-04-15T14:04:05.168Z,18.51
2023-04-15T14:06:33.335Z,18.51
2023-04-15T14:09:01.214Z,18.50
2023-04-15T14:11:30.199Z,18.51
2023-04-15T14:13:57.989Z,18.53
2023-04-15T14:16:26.161Z,18.53
2023-04-15T14:18:54.002Z,18.48
2023-04-15T14:21:21.769Z,18.44
2023-04-15T14:23:49.422Z,18.39
2023-04-15T14:26:17.192Z,18.31
2023-04-15T14:28:45.363Z,18.19
2023-04-15T14:31:13.178Z,18.08
2023-04-15T14:33:40.996Z,17.98
2023-04-15T14:36:08.759Z,17.89
2023-04-15T14:38:38.843Z,17.76
2023-04-15T14:41:06.843Z,17.61
2023-04-15T14:43:34.690Z,17.47
2023-04-15T14:46:03.837Z,17.39
2023-04-15T14:48:33.439Z,17.31
2023-04-15T14:51:01.386Z,17.26
2023-04-15T14:53:29.662Z,17.22
2023-04-15T14:55:57.959Z,17.18
2023-04-15T14:58:26.070Z,17.15
2023-04-15T15:00:53.790Z,17.17
2023-04-15T15:03:21.903Z,17.21
2023-04-15T15:05:49.948Z,17.27
2023-04-15T15:08:17.789Z,17.33
2023-04-15T15:10:49.116Z,17.40
2023-04-15T15:13:17.412Z,17.48
2023-04-15T15:15:45.298Z,17.57
2023-04-15T15:18:13.233Z,17.59
2023-04-15T15:20:41.112Z,17.56
2023-04-15T15:23:08.872Z,17.49
2023-04-15T15:25:36.539Z,17.42
2023-04-15T15:28:04.412Z,17.37
2023-04-15T15:30:32.239Z,17.34
2023-04-15T15:33:00.031Z,17.29
2023-04-15T15:35:28.122Z,17.26
2023-04-15T15:37:55.885Z,17.36
2023-04-15T15:40:23.735Z,17.48
2023-04-15T15:42:51.505Z,17.52
2023-04-15T15:45:19.372Z,17.51
2023-04-15T15:47:47.176Z,17.48
2023-04-15T15:50:15.008Z,17.43
2023-04-15T15:52:42.968Z,17.37
2023-04-15T15:55:10.735Z,17.29
2023-04-15T15:57:38.593Z,17.25
2023-04-15T16:03:04.244Z,17.26
2023-04-15T16:05:24.841Z,17.28
2023-04-15T16:07:52.750Z,17.26
2023-04-15T16:10:20.572Z,17.23
2023-04-15T16:12:48.320Z,17.20
2023-04-15T16:15:16.198Z,17.19
2023-04-15T16:17:43.885Z,17.16
2023-04-15T16:20:11.618Z,17.11
2023-04-15T16:22:39.387Z,17.10
2023-04-15T16:25:07.147Z,17.06
2023-04-15T16:27:36.548Z,16.99
2023-04-15T16:30:14.654Z,16.89
2023-04-15T16:32:42.326Z,16.82
2023-04-15T16:35:10.183Z,16.77
2023-04-15T16:37:37.945Z,16.72
2023-04-15T16:40:05.709Z,16.79
2023-04-15T16:42:33.576Z,17.17
2023-04-15T16:45:01.728Z,17.72
2023-04-15T16:47:33.447Z,18.30
2023-04-15T16:50:04.048Z,18.70
2023-04-15T16:52:33.137Z,18.76
2023-04-15T16:55:00.905Z,18.58
2023-04-15T16:58:03.016Z,18.33
2023-04-15T17:00:32.214Z,17.99
2023-04-15T17:03:00.370Z,17.73
2023-04-15T17:05:28.315Z,17.47
2023-04-15T17:07:56.374Z,17.23
2023-04-15T17:10:24.357Z,17.00
2023-04-15T17:12:52.499Z,16.80
2023-04-15T17:15:20.485Z,16.63
2023-04-15T17:17:48.272Z,16.43
2023-04-15T17:20:19.112Z,16.25
2023-04-15T17:22:46.953Z,16.06
2023-04-15T17:25:15.019Z,15.89
2023-04-15T17:27:42.693Z,15.74
2023-04-15T17:30:10.961Z,15.61
2023-04-15T17:32:39.788Z,15.48
2023-04-15T17:35:08.033Z,15.33
2023-04-15T17:37:36.303Z,15.21
2023-04-15T17:40:05.349Z,15.08
2023-04-15T17:42:35.007Z,14.97
2023-04-15T17:45:02.667Z,14.86
2023-04-15T17:47:30.337Z,14.76
2023-04-15T17:49:58.101Z,14.65
2023-04-15T17:52:26.167Z,14.55
2023-04-15T17:54:53.936Z,14.45
2023-04-15T17:57:21.693Z,14.35
2023-04-15T17:59:49.459Z,14.26
2023-04-15T18:02:17.415Z,14.15
2023-04-15T18:04:45.522Z,14.04
2023-04-15T18:07:13.464Z,13.93
2023-04-15T18:09:41.846Z,13.81
2023-04-15T18:12:09.609Z,13.71
2023-04-15T18:14:37.378Z,13.65
2023-04-15T18:17:05.167Z,13.57
2023-04-15T18:19:33.116Z,13.50
2023-04-15T18:22:01.022Z,13.44
2023-04-15T18:24:28.736Z,13.38
2023-04-15T18:26:56.728Z,13.32
2023-04-15T18:29:25.497Z,13.27
2023-04-15T18:31:53.611Z,13.22
2023-04-15T18:34:21.434Z,13.15
2023-04-15T18:36:49.096Z,13.11
2023-04-15T18:39:17.167Z,13.05
2023-04-15T18:41:44.831Z,13.00
2023-04-15T18:44:12.490Z,12.96
2023-04-15T18:46:40.216Z,12.91
2023-04-15T18:49:08.237Z,12.87
2023-04-15T18:51:36.091Z,12.83
2023-04-15T18:54:03.752Z,12.80
2023-04-15T18:56:31.619Z,12.77
2023-04-15T18:59:10.024Z,12.75
2023-04-15T19:01:46.943Z,12.72
2023-04-15T19:04:14.697Z,12.70
2023-04-15T19:06:42.440Z,12.67
2023-04-15T19:09:10.209Z,12.64
2023-04-15T19:11:38.170Z,12.60
2023-04-15T19:14:06.856Z,12.55
2023-04-15T19:16:34.586Z,12.50
2023-04-15T19:19:02.459Z,12.45
2023-04-15T19:21:30.872Z,12.39
2023-04-15T19:23:58.529Z,12.34
2023-04-15T19:26:26.395Z,12.31
2023-04-15T19:28:54.162Z,12.28
2023-04-15T19:31:21.966Z,12.23
2023-04-15T19:33:49.785Z,12.18
2023-04-15T19:36:18.475Z,12.12
2023-04-15T19:38:46.139Z,12.09
2023-04-15T19:41:13.906Z,12.04
2023-04-15T19:43:41.573Z,12.01
2023-04-15T19:46:09.475Z,11.97
2023-04-15T19:48:37.313Z,11.95
2023-04-15T19:51:05.060Z,11.92
2023-04-15T19:53:32.732Z,11.90
2023-04-15T19:56:00.599Z,11.89
2023-04-15T19:58:28.252Z,11.89
2023-04-15T20:00:56.222Z,11.87
2023-04-15T20:03:24.260Z,11.86
2023-04-15T20:05:53.079Z,11.84
2023-04-15T20:08:20.947Z,11.81
2023-04-15T20:10:48.616Z,11.78
2023-04-15T20:13:16.370Z,11.75
2023-04-15T20:15:44.984Z,11.72
2023-04-15T20:18:12.817Z,11.70
2023-04-15T20:20:40.995Z,11.67
2023-04-15T20:23:08.657Z,11.64
2023-04-15T20:25:36.832Z,11.61
2023-04-15T20:28:04.696Z,11.57
2023-04-15T20:30:32.355Z,11.53
2023-04-15T20:33:00.761Z,11.51
2023-04-15T20:35:31.101Z,11.48
2023-04-15T20:37:59.956Z,11.44
2023-04-15T20:40:27.813Z,11.41
2023-04-15T20:42:56.295Z,11.34
2023-04-15T20:45:24.056Z,11.26
2023-04-15T20:47:51.764Z,11.19
2023-04-15T20:50:19.494Z,11.14
2023-04-15T20:52:47.261Z,11.10
2023-04-15T20:55:14.913Z,11.06
2023-04-15T20:57:45.706Z,11.01
2023-04-15T21:00:18.439Z,10.97
2023-04-15T21:02:46.204Z,10.95
2023-04-15T21:05:14.062Z,10.91
2023-04-15T21:07:41.930Z,10.88
2023-04-15T21:10:09.796Z,10.86
2023-04-15T21:12:41.348Z,10.84
2023-04-15T21:15:09.029Z,10.83
2023-04-15T21:17:36.787Z,10.84
2023-04-15T21:20:04.546Z,10.86
2023-04-15T21:22:32.203Z,10.86
2023-04-15T21:25:00.092Z,10.84
2023-04-15T21:27:27.826Z,10.83
2023-04-15T21:29:55.900Z,10.82
2023-04-15T21:32:23.582Z,10.82
2023-04-15T21:34:51.432Z,10.82
2023-04-15T21:37:19.089Z,10.82
2023-04-15T21:39:46.705Z,10.83
2023-04-15T21:42:14.472Z,10.83
2023-04-15T21:44:42.489Z,10.83
2023-04-15T21:47:10.602Z,10.83
2023-04-15T21:49:38.628Z,10.83
2023-04-15T21:52:06.606Z,10.82
2023-04-15T21:54:37.037Z,10.83
2023-04-15T21:57:04.795Z,10.82
2023-04-15T21:59:32.662Z,10.80
2023-04-15T22:02:00.591Z,10.78
2023-04-15T22:04:28.517Z,10.75
2023-04-15T22:06:59.938Z,10.73
2023-04-15T22:09:27.905Z,10.70
2023-04-15T22:11:55.776Z,10.67
2023-04-15T22:14:23.541Z,10.64
2023-04-15T22:16:51.456Z,10.61
2023-04-15T22:19:19.373Z,10.59
2023-04-15T22:21:47.134Z,10.57
2023-04-15T22:24:38.302Z,10.54
2023-04-15T22:27:03.042Z,10.53
2023-04-15T22:29:30.909Z,10.53
2023-04-15T22:31:58.776Z,10.51
2023-04-15T22:34:26.640Z,10.51
2023-04-15T22:36:54.513Z,10.49
2023-04-15T22:39:22.266Z,10.49
2023-04-15T22:41:49.936Z,10.47
2023-04-15T22:44:17.798Z,10.44
2023-04-15T22:46:45.460Z,10.40
2023-04-15T22:49:13.127Z,10.37
2023-04-15T22:51:41.006Z,10.34
2023-04-15T22:54:08.751Z,10.30
2023-04-15T22:56:40.711Z,11.14
2023-04-15T22:59:08.734Z,14.10
2023-04-15T23:01:38.393Z,15.66
2023-04-15T23:04:10.973Z,14.77
2023-04-15T23:06:52.466Z,13.59
2023-04-15T23:09:20.219Z,12.90
2023-04-15T23:11:47.898Z,12.44
2023-04-15T23:14:16.157Z,12.10
2023-04-15T23:16:43.929Z,11.84
2023-04-15T23:19:11.976Z,11.63
2023-04-15T23:21:39.974Z,11.44
2023-04-15T23:24:07.735Z,11.26
2023-04-15T23:26:35.490Z,11.11
2023-04-15T23:29:03.160Z,10.97
2023-04-15T23:31:31.029Z,10.83
2023-04-15T23:33:59.194Z,10.69
2023-04-15T23:36:27.468Z,10.55
2023-04-15T23:38:55.240Z,10.44
2023-04-15T23:41:22.996Z,10.34
2023-04-15T23:43:50.762Z,10.25
2023-04-15T23:46:18.448Z,10.17
2023-04-15T23:48:47.939Z,10.51
2023-04-15T23:51:16.102Z,13.12
2023-04-15T23:53:43.771Z,14.96
2023-04-15T23:56:11.735Z,14.25
2023-04-15T23:58:39.394Z,13.22
